Terminal Aerodrome Forecast
Issued by NWS

Home | Current Version | Previous Version | Text Only | Print | Product List | Glossary On
Versions: 1 2 3 4 5 6 7 8 9 10 11 12
000
FTUS46 KMTR 012300
TAFSJC
TAF
KSJC 012339Z 0200/0224 30014KT P6SM SKC
     FM020200 30010KT P6SM SKC
     FM020500 30005KT P6SM SKC
     FM020700 00000KT P6SM SKC
     FM021700 VRB04KT P6SM SKC
     FM022100 30011KT P6SM SKC=

USA.gov is the U.S. government's official web portal to all federal, state and local government web resources and services.